createdAt,value
2019-03-27T00:01:28.310Z,3.2
2019-03-27T00:11:25.967Z,3.6
2019-03-27T00:21:25.758Z,2.8
2019-03-27T00:31:26.337Z,2.9
2019-03-27T00:41:26.386Z,2.8
2019-03-27T00:51:26.107Z,2.4
2019-03-27T01:01:26.021Z,2.4
2019-03-27T01:11:25.573Z,2.8
2019-03-27T01:21:27.147Z,3.8
2019-03-27T01:31:26.248Z,3.1
2019-03-27T01:41:26.344Z,3.5
2019-03-27T01:51:27.294Z,4.2
2019-03-27T02:01:26.436Z,4.3
2019-03-27T02:11:25.918Z,4.2
2019-03-27T02:21:26.632Z,3.7
2019-03-27T02:31:26.505Z,3.8
2019-03-27T02:41:26.506Z,3.7
2019-03-27T02:51:26.220Z,3.3
2019-03-27T03:01:27.551Z,4.1
2019-03-27T03:11:27.007Z,3.7
2019-03-27T03:21:25.734Z,3.4
2019-03-27T03:31:26.575Z,3.3
2019-03-27T03:41:26.165Z,4.2
2019-03-27T03:51:26.349Z,3.8
2019-03-27T04:01:34.856Z,4.3
2019-03-27T04:11:26.551Z,3.9
2019-03-27T04:21:27.028Z,3.9
2019-03-27T04:31:25.738Z,4.0
2019-03-27T04:41:28.590Z,4.4
2019-03-27T04:51:27.795Z,4.4
2019-03-27T05:01:26.409Z,4.9
2019-03-27T05:11:26.782Z,6.6
2019-03-27T05:21:26.809Z,6.1
2019-03-27T05:31:36.934Z,5.8
2019-03-27T05:41:27.270Z,6.0
2019-03-27T05:51:26.036Z,4.5
2019-03-27T06:01:29.964Z,6.3
2019-03-27T06:11:27.636Z,5.6
2019-03-27T06:21:27.502Z,5.7
2019-03-27T06:31:26.084Z,5.1
2019-03-27T06:41:27.436Z,5.6
2019-03-27T06:51:39.158Z,5.5
2019-03-27T07:01:27.486Z,4.6
2019-03-27T07:11:26.084Z,5.3
2019-03-27T07:21:25.762Z,4.5
2019-03-27T07:31:26.881Z,4.1
2019-03-27T07:41:32.689Z,4.0
2019-03-27T07:51:26.358Z,4.4
2019-03-27T08:01:26.756Z,1.9
2019-03-27T08:11:26.319Z,2.6
2019-03-27T08:21:26.655Z,1.7
2019-03-27T08:31:26.613Z,2.3
2019-03-27T08:41:26.865Z,2.9
2019-03-27T08:51:27.631Z,3.6
2019-03-27T09:01:26.657Z,3.9
2019-03-27T09:11:26.973Z,3.2
2019-03-27T09:21:25.761Z,3.1
2019-03-27T09:31:43.894Z,3.9
2019-03-27T09:41:27.285Z,3.9
2019-03-27T09:51:26.918Z,4.0
2019-03-27T10:01:27.299Z,3.0
2019-03-27T10:11:26.463Z,3.8
2019-03-27T10:21:26.214Z,3.8
2019-03-27T10:31:25.831Z,3.3
2019-03-27T10:41:26.943Z,2.8
2019-03-27T10:51:26.729Z,3.4
2019-03-27T11:01:26.356Z,2.6
2019-03-27T11:11:26.619Z,3.3
2019-03-27T11:21:26.990Z,3.5
2019-03-27T11:31:26.564Z,3.0
2019-03-27T11:41:27.769Z,3.9
2019-03-27T11:51:26.649Z,3.8
2019-03-27T12:01:38.885Z,2.6
2019-03-27T12:11:26.918Z,3.5
2019-03-27T12:21:25.743Z,4.2
2019-03-27T12:31:27.434Z,3.9
2019-03-27T12:41:26.290Z,3.3
2019-03-27T12:51:26.085Z,3.9
2019-03-27T13:01:26.780Z,4.0
2019-03-27T13:11:26.974Z,3.1
2019-03-27T13:21:27.050Z,3.1
2019-03-27T13:31:25.848Z,4.2
2019-03-27T13:41:26.396Z,3.3
2019-03-27T13:51:39.381Z,3.7
2019-03-27T14:01:26.516Z,6.0
2019-03-27T14:11:26.300Z,3.8
2019-03-27T14:21:26.407Z,4.2
2019-03-27T14:31:27.819Z,5.0
2019-03-27T14:41:34.787Z,4.5
2019-03-27T14:51:31.883Z,4.4
2019-03-27T15:01:26.481Z,3.8
2019-03-27T15:11:26.955Z,4.0
2019-03-27T15:21:26.062Z,3.5
2019-03-27T15:31:27.028Z,5.2
2019-03-27T15:41:26.623Z,4.5
2019-03-27T15:51:32.099Z,5.4
2019-03-27T16:01:26.636Z,5.3
2019-03-27T16:11:27.227Z,5.9
2019-03-27T16:21:27.253Z,6.6
2019-03-27T16:31:26.499Z,4.8
2019-03-27T16:41:26.443Z,4.8
2019-03-27T16:51:26.179Z,4.6
2019-03-27T17:01:26.633Z,6.2
2019-03-27T17:11:26.549Z,6.1
2019-03-27T17:21:27.510Z,7.1
2019-03-27T17:31:29.800Z,8.1
2019-03-27T17:41:28.230Z,8.4
2019-03-27T17:51:26.803Z,7.6
2019-03-27T18:01:26.759Z,8.8
2019-03-27T18:11:26.419Z,9.8
2019-03-27T18:21:26.172Z,9.5
2019-03-27T18:31:26.018Z,8.9
2019-03-27T18:41:27.197Z,10.5
2019-03-27T18:51:26.961Z,10.9
2019-03-27T19:01:26.574Z,14.2
2019-03-27T19:11:26.402Z,13.7
2019-03-27T19:21:27.493Z,17.6
2019-03-27T19:31:26.174Z,15.9
2019-03-27T19:41:26.294Z,16.1
2019-03-27T19:51:26.274Z,17.9
2019-03-27T20:01:25.863Z,19.3
2019-03-27T20:11:26.670Z,22.6
2019-03-27T20:21:26.840Z,23.2
2019-03-27T20:31:26.678Z,26.4
2019-03-27T20:41:27.021Z,30.0
2019-03-27T20:51:25.737Z,30.1
2019-03-27T21:01:26.347Z,33.6
2019-03-27T21:11:25.915Z,34.6
2019-03-27T21:21:26.751Z,36.3
2019-03-27T21:31:26.506Z,33.8
2019-03-27T21:41:27.221Z,33.8
2019-03-27T21:51:25.792Z,32.2
2019-03-27T22:01:26.678Z,38.6
2019-03-27T22:11:26.822Z,36.3
2019-03-27T22:21:27.163Z,36.0
2019-03-27T22:31:26.645Z,37.0
2019-03-27T22:41:27.728Z,37.9
2019-03-27T22:51:26.520Z,47.9
2019-03-27T23:01:28.086Z,49.5
2019-03-27T23:11:28.142Z,47.0
2019-03-27T23:21:25.943Z,44.4
2019-03-27T23:31:27.859Z,46.6
2019-03-27T23:41:27.518Z,46.4
2019-03-27T23:51:27.531Z,45.5
